createdAt,value
2022-08-28T00:00:43.730Z,100.00
2022-08-28T00:03:13.888Z,100.00
2022-08-28T00:05:44.383Z,100.00
2022-08-28T00:08:14.492Z,100.00
2022-08-28T00:10:45.028Z,100.00
2022-08-28T00:13:17.412Z,100.00
2022-08-28T00:15:51.081Z,100.00
2022-08-28T00:18:19.618Z,100.00
2022-08-28T00:20:48.997Z,100.00
2022-08-28T00:23:17.262Z,100.00
2022-08-28T00:25:44.316Z,100.00
2022-08-28T00:28:23.866Z,100.00
2022-08-28T00:30:56.608Z,100.00
2022-08-28T00:33:29.940Z,100.00
2022-08-28T00:35:58.945Z,100.00
2022-08-28T00:38:30.318Z,100.00
2022-08-28T00:41:01.684Z,100.00
2022-08-28T00:43:39.486Z,100.00
2022-08-28T00:46:18.108Z,100.00
2022-08-28T00:48:48.009Z,100.00
2022-08-28T00:51:20.336Z,100.00
2022-08-28T00:53:48.916Z,100.00
2022-08-28T00:56:19.365Z,100.00
2022-08-28T00:58:51.327Z,100.00
2022-08-28T01:01:19.789Z,100.00
2022-08-28T01:03:46.807Z,100.00
2022-08-28T01:06:16.704Z,100.00
2022-08-28T01:08:50.440Z,100.00
2022-08-28T01:11:19.787Z,100.00
2022-08-28T01:13:48.592Z,100.00
2022-08-28T01:16:19.679Z,100.00
2022-08-28T01:18:48.496Z,100.00
2022-08-28T01:21:28.918Z,100.00
2022-08-28T01:24:04.845Z,100.00
2022-08-28T01:26:32.031Z,100.00
2022-08-28T01:29:00.985Z,100.00
2022-08-28T01:31:30.349Z,100.00
2022-08-28T01:33:57.909Z,100.00
2022-08-28T01:36:25.134Z,100.00
2022-08-28T01:39:01.246Z,100.00
2022-08-28T01:41:28.193Z,100.00
2022-08-28T01:43:55.518Z,100.00
2022-08-28T01:46:22.895Z,100.00
2022-08-28T01:48:49.750Z,100.00
2022-08-28T01:51:20.411Z,100.00
2022-08-28T01:53:49.824Z,100.00
2022-08-28T01:56:18.687Z,100.00
2022-08-28T01:58:46.311Z,100.00
2022-08-28T02:01:16.109Z,100.00
2022-08-28T02:03:43.533Z,100.00
2022-08-28T02:06:11.883Z,100.00
2022-08-28T02:08:39.535Z,100.00
2022-08-28T02:11:07.757Z,100.00
2022-08-28T02:13:38.572Z,100.00
2022-08-28T02:16:09.267Z,100.00
2022-08-28T02:18:38.272Z,100.00
2022-08-28T02:21:07.583Z,100.00
2022-08-28T02:23:35.602Z,100.00
2022-08-28T02:26:02.375Z,100.00
2022-08-28T02:28:29.419Z,100.00
2022-08-28T02:30:57.741Z,100.00
2022-08-28T02:33:24.650Z,100.00
2022-08-28T02:35:51.813Z,100.00
2022-08-28T02:38:18.892Z,100.00
2022-08-28T02:40:46.466Z,100.00
2022-08-28T02:43:13.546Z,100.00
2022-08-28T02:45:40.670Z,100.00
2022-08-28T02:48:16.762Z,100.00
2022-08-28T02:50:44.713Z,100.00
2022-08-28T02:53:11.965Z,100.00
2022-08-28T02:55:38.995Z,100.00
2022-08-28T02:58:06.524Z,100.00
2022-08-28T03:00:33.634Z,100.00
2022-08-28T03:03:00.508Z,100.00
2022-08-28T03:05:28.891Z,100.00
2022-08-28T03:07:55.720Z,100.00
2022-08-28T03:10:23.061Z,100.00
2022-08-28T03:12:50.022Z,100.00
2022-08-28T03:15:17.449Z,100.00
2022-08-28T03:17:45.281Z,100.00
2022-08-28T03:20:15.844Z,100.00
2022-08-28T03:22:44.606Z,100.00
2022-08-28T03:25:12.421Z,100.00
2022-08-28T03:27:39.618Z,100.00
2022-08-28T03:30:08.436Z,100.00
2022-08-28T03:32:36.222Z,100.00
2022-08-28T03:35:05.339Z,100.00
2022-08-28T03:37:32.263Z,100.00
2022-08-28T03:40:00.699Z,100.00
2022-08-28T03:42:27.581Z,100.00
2022-08-28T03:44:54.739Z,100.00
2022-08-28T03:47:21.728Z,100.00
2022-08-28T03:49:55.244Z,100.00
2022-08-28T03:52:23.456Z,100.00
2022-08-28T03:54:51.233Z,100.00
2022-08-28T03:57:21.819Z,100.00
2022-08-28T03:59:52.370Z,100.00
2022-08-28T04:02:19.942Z,100.00
2022-08-28T04:04:48.228Z,100.00
2022-08-28T04:07:16.289Z,100.00
2022-08-28T04:09:43.306Z,100.00
2022-08-28T04:12:10.835Z,100.00
2022-08-28T04:14:39.393Z,100.00
2022-08-28T04:17:07.154Z,100.00
2022-08-28T04:19:34.357Z,100.00
2022-08-28T04:22:01.380Z,100.00
2022-08-28T04:24:28.221Z,100.00
2022-08-28T04:26:55.151Z,100.00
2022-08-28T04:29:22.125Z,100.00
2022-08-28T04:31:50.584Z,100.00
2022-08-28T04:34:17.796Z,100.00
2022-08-28T04:36:45.148Z,100.00
2022-08-28T04:39:12.007Z,100.00
2022-08-28T04:41:38.861Z,100.00
2022-08-28T04:44:06.717Z,100.00
2022-08-28T04:46:34.062Z,100.00
2022-08-28T04:49:03.167Z,100.00
2022-08-28T04:51:31.268Z,100.00
2022-08-28T04:53:58.957Z,100.00
2022-08-28T04:56:26.957Z,100.00
2022-08-28T04:58:54.177Z,100.00
2022-08-28T05:01:24.578Z,100.00
2022-08-28T05:03:56.362Z,100.00
2022-08-28T05:06:26.739Z,100.00
2022-08-28T05:08:57.915Z,100.00
2022-08-28T05:11:33.418Z,100.00
2022-08-28T05:14:04.970Z,100.00
2022-08-28T05:16:33.586Z,100.00
2022-08-28T05:19:01.644Z,100.00
2022-08-28T05:21:30.216Z,100.00
2022-08-28T05:23:58.057Z,100.00
2022-08-28T05:26:27.234Z,100.00
2022-08-28T05:28:58.193Z,100.00
2022-08-28T05:31:26.781Z,100.00
2022-08-28T05:33:54.803Z,100.00
2022-08-28T05:36:25.787Z,100.00
2022-08-28T05:38:58.433Z,100.00
2022-08-28T05:41:29.321Z,100.00
2022-08-28T05:43:58.077Z,100.00
2022-08-28T05:46:25.798Z,100.00
2022-08-28T05:48:52.695Z,100.00
2022-08-28T05:51:23.030Z,100.00
2022-08-28T05:53:52.093Z,100.00
2022-08-28T05:56:24.352Z,100.00
2022-08-28T05:58:51.729Z,100.00
2022-08-28T06:01:22.338Z,100.00
2022-08-28T06:03:54.853Z,100.00
2022-08-28T06:06:23.304Z,100.00
2022-08-28T06:09:07.380Z,100.00
2022-08-28T06:11:36.953Z,100.00
2022-08-28T06:14:08.909Z,100.00
2022-08-28T06:16:38.736Z,100.00
2022-08-28T06:19:06.452Z,100.00
2022-08-28T06:21:33.318Z,100.00
2022-08-28T06:24:00.523Z,100.00
2022-08-28T06:26:27.642Z,100.00
2022-08-28T06:29:00.376Z,100.00
2022-08-28T06:31:33.040Z,100.00
2022-08-28T06:34:01.330Z,100.00
2022-08-28T06:36:33.089Z,100.00
2022-08-28T06:39:03.652Z,100.00
2022-08-28T06:41:31.387Z,100.00
2022-08-28T06:44:00.010Z,100.00
2022-08-28T06:46:27.583Z,100.00
2022-08-28T06:48:54.861Z,100.00
2022-08-28T06:51:24.844Z,100.00
2022-08-28T06:53:52.387Z,100.00
2022-08-28T06:56:25.710Z,100.00
2022-08-28T06:58:56.204Z,99.61
2022-08-28T07:01:28.340Z,99.61
2022-08-28T07:03:58.835Z,99.15
2022-08-28T07:06:27.138Z,98.96
2022-08-28T07:08:54.201Z,98.80
2022-08-28T07:11:26.129Z,98.39
2022-08-28T07:13:55.890Z,98.89
2022-08-28T07:16:29.070Z,98.42
2022-08-28T07:18:57.610Z,98.58
2022-08-28T07:21:25.008Z,97.57
2022-08-28T07:23:51.966Z,98.74
2022-08-28T07:26:22.570Z,97.30
2022-08-28T07:28:50.171Z,97.45
2022-08-28T07:31:23.289Z,96.93
2022-08-28T07:33:54.064Z,95.44
2022-08-28T07:36:29.261Z,96.44
2022-08-28T07:38:59.688Z,96.17
2022-08-28T07:41:30.134Z,95.75
2022-08-28T07:43:57.929Z,95.16
2022-08-28T07:46:25.022Z,97.85
2022-08-28T07:48:53.516Z,95.99
2022-08-28T07:51:20.783Z,95.71
2022-08-28T07:53:47.638Z,95.33
2022-08-28T07:56:14.547Z,94.66
2022-08-28T07:58:41.372Z,94.20
2022-08-28T08:01:08.796Z,93.80
2022-08-28T08:03:35.679Z,91.94
2022-08-28T08:06:05.994Z,94.05
2022-08-28T08:08:34.504Z,92.77
2022-08-28T08:11:06.004Z,92.30
2022-08-28T08:13:35.307Z,90.58
2022-08-28T08:16:06.451Z,89.91
2022-08-28T08:18:34.199Z,89.35
2022-08-28T08:21:07.003Z,90.06
2022-08-28T08:23:34.694Z,89.45
2022-08-28T08:26:05.068Z,88.38
2022-08-28T08:28:35.291Z,88.40
2022-08-28T08:31:05.916Z,87.09
2022-08-28T08:33:33.979Z,87.16
2022-08-28T08:36:01.063Z,86.06
2022-08-28T08:38:30.779Z,85.01
2022-08-28T08:41:00.418Z,85.60
2022-08-28T08:43:33.523Z,83.17
2022-08-28T08:46:00.937Z,83.14
2022-08-28T08:48:34.070Z,80.59
2022-08-28T08:51:11.051Z,79.34
2022-08-28T08:53:54.112Z,77.40
2022-08-28T08:56:21.006Z,76.51
2022-08-28T08:58:53.571Z,75.61
2022-08-28T09:01:30.693Z,73.69
2022-08-28T09:04:09.127Z,73.20
2022-08-28T09:06:47.551Z,73.28
2022-08-28T09:09:26.431Z,72.76
2022-08-28T09:11:57.843Z,71.95
2022-08-28T09:14:37.812Z,71.92
2022-08-28T09:17:07.342Z,69.93
2022-08-28T09:19:37.762Z,71.23
2022-08-28T09:22:05.017Z,69.74
2022-08-28T09:24:35.923Z,67.19
2022-08-28T09:27:12.331Z,70.26
2022-08-28T09:29:42.433Z,65.69
2022-08-28T09:32:23.167Z,63.39
2022-08-28T09:35:13.176Z,62.05
2022-08-28T09:37:42.593Z,59.98
2022-08-28T09:40:25.000Z,62.43
2022-08-28T09:43:15.039Z,66.24
2022-08-28T09:45:42.547Z,65.38
2022-08-28T09:48:21.848Z,65.18
2022-08-28T09:50:59.357Z,63.60
2022-08-28T09:53:26.217Z,61.44
2022-08-28T09:56:08.087Z,61.74
2022-08-28T09:58:39.867Z,62.95
2022-08-28T10:01:47.289Z,61.77
2022-08-28T10:04:46.297Z,60.93
2022-08-28T10:07:25.002Z,63.35
2022-08-28T10:10:12.696Z,62.41
2022-08-28T10:13:02.960Z,59.79
2022-08-28T10:16:19.042Z,56.34
2022-08-28T10:18:58.010Z,56.94
2022-08-28T10:21:36.714Z,56.89
2022-08-28T10:24:28.391Z,57.00
2022-08-28T10:27:11.236Z,57.97
2022-08-28T10:29:53.664Z,58.77
2022-08-28T10:32:53.741Z,59.23
2022-08-28T10:35:25.734Z,59.60
2022-08-28T10:38:08.757Z,60.42
2022-08-28T10:40:40.426Z,61.60
2022-08-28T10:43:16.362Z,62.42
2022-08-28T10:45:45.700Z,63.09
2022-08-28T10:48:25.141Z,61.60
2022-08-28T10:51:00.483Z,60.58
2022-08-28T10:53:37.448Z,59.07
2022-08-28T10:56:13.001Z,56.89
2022-08-28T10:58:41.374Z,54.79
2022-08-28T11:01:18.558Z,52.01
2022-08-28T11:03:51.371Z,54.25
2022-08-28T11:06:33.198Z,51.45
2022-08-28T11:09:06.801Z,53.38
2022-08-28T11:11:45.043Z,55.94
2022-08-28T11:14:26.786Z,56.18
2022-08-28T11:17:00.380Z,55.32
2022-08-28T11:19:59.618Z,53.84
2022-08-28T11:22:34.829Z,50.06
2022-08-28T11:25:15.132Z,51.09
2022-08-28T11:28:16.035Z,50.98
2022-08-28T11:30:44.721Z,49.02
2022-08-28T11:33:39.396Z,47.01
2022-08-28T11:36:12.230Z,48.61
2022-08-28T11:39:05.898Z,51.42
2022-08-28T11:41:36.198Z,53.76
2022-08-28T11:44:38.637Z,52.27
2022-08-28T11:47:49.522Z,50.08
2022-08-28T11:50:25.524Z,52.06
2022-08-28T11:53:50.842Z,56.56
2022-08-28T11:56:49.101Z,54.84
2022-08-28T11:59:45.528Z,54.39
2022-08-28T12:02:48.752Z,53.04
2022-08-28T12:05:49.638Z,51.29
2022-08-28T12:09:08.534Z,51.28
2022-08-28T12:11:56.776Z,51.76
2022-08-28T12:15:10.134Z,53.06
2022-08-28T12:17:59.755Z,52.92
2022-08-28T12:20:38.834Z,55.80
2022-08-28T12:23:39.535Z,53.70
2022-08-28T12:26:19.203Z,53.67
2022-08-28T12:28:51.561Z,54.20
2022-08-28T12:32:01.320Z,54.60
2022-08-28T12:34:49.855Z,54.99
2022-08-28T12:37:30.796Z,53.82
2022-08-28T12:40:17.915Z,53.98
2022-08-28T12:42:55.053Z,51.93
2022-08-28T12:45:29.344Z,53.19
2022-08-28T12:48:02.543Z,56.42
2022-08-28T12:50:35.287Z,58.92
2022-08-28T12:53:07.600Z,57.92
2022-08-28T12:55:37.883Z,58.18
2022-08-28T12:58:12.916Z,57.51
2022-08-28T13:00:54.712Z,56.06
2022-08-28T13:03:23.670Z,56.29
2022-08-28T13:06:01.500Z,58.16
2022-08-28T13:08:29.453Z,58.14
2022-08-28T13:10:56.674Z,56.22
2022-08-28T13:13:35.088Z,56.12
2022-08-28T13:16:04.938Z,56.26
2022-08-28T13:18:47.443Z,55.76
2022-08-28T13:21:34.866Z,55.32
2022-08-28T13:24:40.652Z,55.38
2022-08-28T13:27:25.007Z,55.46
2022-08-28T13:30:01.279Z,55.69
2022-08-28T13:32:32.586Z,56.31
2022-08-28T13:35:35.296Z,55.82
2022-08-28T13:38:07.251Z,57.84
2022-08-28T13:41:00.075Z,57.55
2022-08-28T13:43:42.762Z,57.28
2022-08-28T13:46:10.151Z,55.91
2022-08-28T13:48:37.031Z,55.89
2022-08-28T13:51:10.675Z,55.31
2022-08-28T13:53:39.732Z,55.09
2022-08-28T13:56:07.191Z,55.25
2022-08-28T13:58:34.345Z,55.83
2022-08-28T14:01:02.369Z,56.29
2022-08-28T14:03:29.379Z,56.69
2022-08-28T14:05:56.321Z,56.58
2022-08-28T14:08:25.028Z,55.60
2022-08-28T14:10:52.254Z,55.41
2022-08-28T14:13:19.437Z,56.26
2022-08-28T14:15:46.374Z,54.36
2022-08-28T14:18:13.435Z,54.18
2022-08-28T14:20:40.629Z,53.17
2022-08-28T14:23:09.844Z,52.95
2022-08-28T14:25:43.532Z,52.19
2022-08-28T14:28:12.063Z,51.82
2022-08-28T14:30:42.895Z,53.82
2022-08-28T14:33:10.942Z,54.54
2022-08-28T14:35:39.912Z,55.25
2022-08-28T14:38:07.248Z,55.15
2022-08-28T14:40:36.806Z,54.61
2022-08-28T14:43:05.413Z,54.90
2022-08-28T14:45:32.900Z,56.18
2022-08-28T14:48:00.143Z,55.10
2022-08-28T14:50:27.995Z,54.21
2022-08-28T14:52:54.957Z,55.37
2022-08-28T14:55:21.938Z,55.72
2022-08-28T14:57:51.214Z,55.45
2022-08-28T15:00:20.862Z,53.89
2022-08-28T15:02:47.840Z,53.50
2022-08-28T15:05:15.111Z,54.65
2022-08-28T15:07:41.923Z,55.69
2022-08-28T15:10:10.779Z,55.69
2022-08-28T15:12:38.563Z,56.30
2022-08-28T15:15:06.654Z,56.70
2022-08-28T15:17:34.919Z,56.32
2022-08-28T15:20:03.751Z,56.86
2022-08-28T15:22:30.839Z,56.11
2022-08-28T15:24:57.799Z,56.74
2022-08-28T15:27:24.673Z,56.80
2022-08-28T15:29:51.795Z,56.55
2022-08-28T15:32:18.914Z,56.73
2022-08-28T15:34:47.171Z,57.16
2022-08-28T15:37:14.061Z,57.13
2022-08-28T15:39:41.135Z,56.97
2022-08-28T15:42:09.946Z,56.00
2022-08-28T15:44:47.047Z,55.21
2022-08-28T15:47:17.350Z,54.56
2022-08-28T15:49:48.858Z,55.54
2022-08-28T15:52:19.606Z,55.13
2022-08-28T15:54:47.058Z,54.05
2022-08-28T15:57:14.233Z,53.60
2022-08-28T15:59:50.039Z,54.42
2022-08-28T16:02:19.822Z,54.89
2022-08-28T16:04:47.240Z,55.77
2022-08-28T16:07:20.426Z,55.41
2022-08-28T16:09:47.550Z,55.82
2022-08-28T16:12:14.458Z,56.11
2022-08-28T16:14:41.947Z,55.35
2022-08-28T16:17:10.979Z,56.37
2022-08-28T16:19:40.021Z,56.24
2022-08-28T16:22:07.807Z,57.21
2022-08-28T16:24:36.392Z,54.30
2022-08-28T16:27:03.511Z,57.23
2022-08-28T16:29:30.634Z,55.66
2022-08-28T16:31:57.532Z,55.43
2022-08-28T16:34:30.782Z,56.14
2022-08-28T16:36:58.892Z,54.71
2022-08-28T16:39:26.135Z,54.28
2022-08-28T16:41:54.664Z,54.88
2022-08-28T16:44:24.262Z,54.80
2022-08-28T16:46:51.856Z,54.61
2022-08-28T16:49:19.379Z,54.36
2022-08-28T16:51:46.987Z,55.54
2022-08-28T16:54:14.374Z,55.47
2022-08-28T16:56:41.560Z,55.91
2022-08-28T16:59:10.389Z,56.34
2022-08-28T17:01:40.154Z,56.63
2022-08-28T17:04:09.819Z,56.61
2022-08-28T17:06:36.654Z,57.07
2022-08-28T17:09:04.138Z,57.46
2022-08-28T17:11:31.935Z,57.36
2022-08-28T17:13:59.169Z,57.70
2022-08-28T17:16:30.141Z,58.15
2022-08-28T17:18:58.170Z,58.76
2022-08-28T17:21:25.298Z,59.16
2022-08-28T17:23:52.401Z,59.04
2022-08-28T17:26:20.536Z,59.23
2022-08-28T17:28:47.656Z,58.89
2022-08-28T17:31:14.992Z,59.52
2022-08-28T17:33:44.993Z,60.40
2022-08-28T17:36:21.330Z,60.32
2022-08-28T17:39:01.989Z,60.40
2022-08-28T17:41:28.882Z,60.99
2022-08-28T17:43:56.009Z,61.85
2022-08-28T17:46:22.979Z,62.31
2022-08-28T17:48:55.718Z,61.48
2022-08-28T17:51:40.386Z,61.96
2022-08-28T17:54:12.043Z,62.84
2022-08-28T17:56:39.175Z,63.23
2022-08-28T17:59:06.279Z,63.35
2022-08-28T18:01:33.285Z,65.53
2022-08-28T18:04:03.764Z,65.48
2022-08-28T18:06:30.924Z,64.58
2022-08-28T18:08:58.060Z,65.83
2022-08-28T18:11:25.129Z,66.34
2022-08-28T18:13:52.272Z,67.44
2022-08-28T18:16:19.543Z,67.06
2022-08-28T18:18:47.461Z,68.73
2022-08-28T18:21:15.761Z,69.01
2022-08-28T18:23:42.792Z,69.07
2022-08-28T18:26:10.037Z,68.34
2022-08-28T18:28:37.285Z,69.72
2022-08-28T18:31:06.457Z,69.02
2022-08-28T18:33:34.069Z,69.23
2022-08-28T18:36:01.291Z,69.19
2022-08-28T18:38:30.027Z,71.22
2022-08-28T18:40:57.104Z,71.67
2022-08-28T18:43:24.103Z,70.83
2022-08-28T18:45:50.971Z,71.57
2022-08-28T18:48:18.304Z,71.75
2022-08-28T18:50:46.708Z,71.79
2022-08-28T18:53:14.909Z,71.39
2022-08-28T18:55:43.304Z,73.98
2022-08-28T18:58:14.946Z,72.86
2022-08-28T19:00:42.760Z,76.33
2022-08-28T19:03:10.428Z,77.01
2022-08-28T19:05:39.196Z,78.30
2022-08-28T19:08:06.270Z,80.33
2022-08-28T19:10:34.938Z,80.29
2022-08-28T19:13:05.585Z,79.87
2022-08-28T19:15:34.790Z,79.57
2022-08-28T19:18:02.775Z,81.98
2022-08-28T19:20:31.176Z,82.61
2022-08-28T19:22:59.178Z,84.13
2022-08-28T19:25:29.453Z,85.84
2022-08-28T19:27:59.157Z,85.98
2022-08-28T19:30:34.751Z,86.50
2022-08-28T19:33:04.868Z,86.49
2022-08-28T19:35:33.214Z,86.85
2022-08-28T19:38:00.867Z,85.89
2022-08-28T19:40:28.430Z,84.99
2022-08-28T19:42:55.376Z,83.46
2022-08-28T19:45:23.404Z,83.75
2022-08-28T19:47:52.344Z,83.74
2022-08-28T19:50:19.989Z,83.26
2022-08-28T19:52:46.856Z,84.03
2022-08-28T19:55:17.711Z,85.54
2022-08-28T19:57:44.979Z,89.39
2022-08-28T20:00:13.458Z,89.86
2022-08-28T20:02:40.851Z,90.57
2022-08-28T20:05:10.971Z,90.02
2022-08-28T20:07:37.860Z,87.54
2022-08-28T20:10:06.947Z,87.42
2022-08-28T20:12:37.187Z,85.46
2022-08-28T20:15:05.718Z,85.16
2022-08-28T20:17:33.055Z,85.01
2022-08-28T20:20:03.019Z,84.84
2022-08-28T20:22:32.184Z,84.53
2022-08-28T20:24:59.453Z,85.44
2022-08-28T20:27:26.672Z,86.92
2022-08-28T20:29:53.701Z,86.70
2022-08-28T20:32:20.931Z,86.42
2022-08-28T20:34:47.749Z,84.99
2022-08-28T20:37:14.841Z,85.22
2022-08-28T20:39:43.230Z,85.85
2022-08-28T20:42:10.935Z,85.91
2022-08-28T20:44:37.947Z,86.79
2022-08-28T20:47:06.031Z,87.19
2022-08-28T20:49:34.166Z,87.52
2022-08-28T20:52:07.195Z,87.12
2022-08-28T20:54:37.605Z,87.19
2022-08-28T20:57:10.201Z,87.27
2022-08-28T20:59:40.794Z,86.21
2022-08-28T21:02:10.913Z,86.80
2022-08-28T21:04:39.969Z,86.76
2022-08-28T21:07:07.272Z,86.41
2022-08-28T21:09:58.162Z,86.17
2022-08-28T21:12:23.836Z,85.68
2022-08-28T21:14:52.710Z,86.92
2022-08-28T21:17:22.605Z,87.49
2022-08-28T21:19:59.171Z,88.23
2022-08-28T21:22:26.014Z,89.56
2022-08-28T21:24:53.871Z,88.26
2022-08-28T21:27:22.045Z,87.96
2022-08-28T21:29:49.067Z,89.17
2022-08-28T21:32:16.021Z,89.26
2022-08-28T21:34:42.878Z,88.67
2022-08-28T21:37:09.986Z,88.71
2022-08-28T21:39:36.927Z,88.41
2022-08-28T21:42:04.114Z,87.87
2022-08-28T21:44:32.507Z,86.05
2022-08-28T21:47:00.245Z,85.50
2022-08-28T21:49:27.302Z,87.09
2022-08-28T21:51:54.420Z,88.21
2022-08-28T21:54:22.125Z,88.53
2022-08-28T21:56:50.629Z,88.74
2022-08-28T21:59:26.713Z,90.53
2022-08-28T22:02:01.406Z,90.22
2022-08-28T22:04:29.124Z,90.88
2022-08-28T22:06:56.111Z,89.68
2022-08-28T22:09:23.023Z,87.73
2022-08-28T22:11:50.431Z,87.30
2022-08-28T22:14:17.312Z,87.02
2022-08-28T22:16:44.632Z,87.91
2022-08-28T22:19:12.859Z,88.96
2022-08-28T22:21:39.675Z,90.27
2022-08-28T22:24:09.820Z,88.53
2022-08-28T22:26:37.823Z,88.18
2022-08-28T22:29:05.098Z,88.49
2022-08-28T22:31:32.297Z,89.43
2022-08-28T22:33:59.245Z,90.10
2022-08-28T22:36:29.405Z,90.94
2022-08-28T22:38:57.127Z,91.22
2022-08-28T22:41:24.885Z,92.81
2022-08-28T22:43:53.670Z,91.75
2022-08-28T22:46:20.803Z,92.06
2022-08-28T22:48:48.954Z,92.21
2022-08-28T22:51:18.767Z,92.59
2022-08-28T22:53:48.646Z,91.32
2022-08-28T22:56:17.206Z,91.43
2022-08-28T22:58:44.716Z,91.55
2022-08-28T23:01:17.590Z,92.62
2022-08-28T23:03:45.658Z,91.65
2022-08-28T23:06:13.332Z,91.97
2022-08-28T23:08:41.054Z,91.51
2022-08-28T23:11:10.139Z,94.11
2022-08-28T23:13:38.808Z,94.46
2022-08-28T23:16:06.722Z,95.06
2022-08-28T23:18:51.657Z,92.88
2022-08-28T23:21:26.217Z,90.80
2022-08-28T23:23:54.860Z,88.98
2022-08-28T23:26:24.979Z,89.11
2022-08-28T23:28:52.969Z,89.44
2022-08-28T23:31:19.871Z,91.30
2022-08-28T23:33:48.586Z,92.33
2022-08-28T23:36:16.056Z,92.26
2022-08-28T23:38:45.543Z,91.03
2022-08-28T23:41:12.762Z,92.86
2022-08-28T23:43:42.183Z,90.47
2022-08-28T23:46:09.838Z,89.24
2022-08-28T23:48:40.553Z,88.63
2022-08-28T23:51:09.250Z,86.66
2022-08-28T23:53:36.817Z,85.54
2022-08-28T23:56:04.521Z,86.69
2022-08-28T23:58:31.801Z,87.11
